sensor_id;sensor_type;location;lat;lon;timestamp;P1;durP1;ratioP1;P2;durP2;ratioP2
7029;SDS011;3556;53.500;10.176;2022-12-05T00:00:52;63.60;;;26.13;;
7029;SDS011;3556;53.500;10.176;2022-12-05T00:03:19;51.80;;;24.57;;
7029;SDS011;3556;53.500;10.176;2022-12-05T00:05:45;60.50;;;26.10;;
7029;SDS011;3556;53.500;10.176;2022-12-05T00:08:11;61.20;;;26.00;;
7029;SDS011;3556;53.500;10.176;2022-12-05T00:10:37;59.73;;;25.57;;
7029;SDS011;3556;53.500;10.176;2022-12-05T00:13:03;58.77;;;25.80;;
7029;SDS011;3556;53.500;10.176;2022-12-05T00:15:29;61.10;;;25.60;;
7029;SDS011;3556;53.500;10.176;2022-12-05T00:17:55;64.43;;;25.00;;
7029;SDS011;3556;53.500;10.176;2022-12-05T00:20:20;59.20;;;25.70;;
7029;SDS011;3556;53.500;10.176;2022-12-05T00:22:46;62.87;;;24.70;;
7029;SDS011;3556;53.500;10.176;2022-12-05T00:25:11;58.43;;;25.43;;
7029;SDS011;3556;53.500;10.176;2022-12-05T00:27:37;52.97;;;23.87;;
7029;SDS011;3556;53.500;10.176;2022-12-05T00:30:03;55.70;;;25.00;;
7029;SDS011;3556;53.500;10.176;2022-12-05T00:32:30;57.67;;;26.20;;
7029;SDS011;3556;53.500;10.176;2022-12-05T00:34:56;53.10;;;24.67;;
7029;SDS011;3556;53.500;10.176;2022-12-05T00:37:22;59.13;;;23.93;;
7029;SDS011;3556;53.500;10.176;2022-12-05T00:39:48;50.47;;;24.40;;
7029;SDS011;3556;53.500;10.176;2022-12-05T00:42:14;59.03;;;25.40;;
7029;SDS011;3556;53.500;10.176;2022-12-05T00:44:39;56.13;;;23.80;;
7029;SDS011;3556;53.500;10.176;2022-12-05T00:47:05;55.10;;;24.10;;
7029;SDS011;3556;53.500;10.176;2022-12-05T00:49:31;53.33;;;25.33;;
7029;SDS011;3556;53.500;10.176;2022-12-05T00:51:57;59.20;;;24.37;;
7029;SDS011;3556;53.500;10.176;2022-12-05T00:54:22;59.87;;;24.47;;
7029;SDS011;3556;53.500;10.176;2022-12-05T00:56:48;54.37;;;24.17;;
7029;SDS011;3556;53.500;10.176;2022-12-05T00:59:17;54.10;;;23.63;;
7029;SDS011;3556;53.500;10.176;2022-12-05T01:01:43;56.53;;;24.00;;
7029;SDS011;3556;53.500;10.176;2022-12-05T01:04:11;53.13;;;23.33;;
7029;SDS011;3556;53.500;10.176;2022-12-05T01:06:39;56.17;;;24.60;;
7029;SDS011;3556;53.500;10.176;2022-12-05T01:09:06;53.07;;;24.00;;
7029;SDS011;3556;53.500;10.176;2022-12-05T01:11:32;52.17;;;24.20;;
7029;SDS011;3556;53.500;10.176;2022-12-05T01:13:58;57.03;;;24.00;;
7029;SDS011;3556;53.500;10.176;2022-12-05T01:16:32;48.37;;;23.57;;
7029;SDS011;3556;53.500;10.176;2022-12-05T01:19:00;47.83;;;23.30;;
7029;SDS011;3556;53.500;10.176;2022-12-05T01:21:28;51.53;;;22.50;;
7029;SDS011;3556;53.500;10.176;2022-12-05T01:23:54;46.97;;;22.80;;
7029;SDS011;3556;53.500;10.176;2022-12-05T01:26:20;46.77;;;22.40;;
7029;SDS011;3556;53.500;10.176;2022-12-05T01:28:47;48.20;;;22.63;;
7029;SDS011;3556;53.500;10.176;2022-12-05T01:33:52;52.60;;;22.97;;
7029;SDS011;3556;53.500;10.176;2022-12-05T01:36:19;46.70;;;23.27;;
7029;SDS011;3556;53.500;10.176;2022-12-05T01:38:47;47.57;;;22.30;;
7029;SDS011;3556;53.500;10.176;2022-12-05T01:41:13;47.90;;;22.30;;
7029;SDS011;3556;53.500;10.176;2022-12-05T01:46:22;41.47;;;21.17;;
7029;SDS011;3556;53.500;10.176;2022-12-05T01:48:48;46.27;;;21.60;;
7029;SDS011;3556;53.500;10.176;2022-12-05T01:51:15;39.70;;;21.60;;
7029;SDS011;3556;53.500;10.176;2022-12-05T01:53:41;42.90;;;21.90;;
7029;SDS011;3556;53.500;10.176;2022-12-05T01:56:06;43.87;;;20.53;;
7029;SDS011;3556;53.500;10.176;2022-12-05T01:58:34;46.10;;;20.87;;
7029;SDS011;3556;53.500;10.176;2022-12-05T02:01:02;41.60;;;20.70;;
7029;SDS011;3556;53.500;10.176;2022-12-05T02:03:28;43.67;;;22.37;;
7029;SDS011;3556;53.500;10.176;2022-12-05T02:05:54;45.97;;;22.57;;
7029;SDS011;3556;53.500;10.176;2022-12-05T02:08:22;46.80;;;20.83;;
7029;SDS011;3556;53.500;10.176;2022-12-05T02:10:52;38.43;;;21.30;;
7029;SDS011;3556;53.500;10.176;2022-12-05T02:30:21;40.93;;;20.00;;
7029;SDS011;3556;53.500;10.176;2022-12-05T02:32:55;42.57;;;22.23;;
7029;SDS011;3556;53.500;10.176;2022-12-05T02:41:06;38.20;;;20.40;;
7029;SDS011;3556;53.500;10.176;2022-12-05T02:46:21;40.97;;;21.27;;
7029;SDS011;3556;53.500;10.176;2022-12-05T02:48:50;38.07;;;20.80;;
7029;SDS011;3556;53.500;10.176;2022-12-05T02:51:23;44.20;;;21.03;;
7029;SDS011;3556;53.500;10.176;2022-12-05T02:53:53;40.87;;;20.10;;
7029;SDS011;3556;53.500;10.176;2022-12-05T02:56:23;38.77;;;20.40;;
7029;SDS011;3556;53.500;10.176;2022-12-05T02:58:52;41.03;;;20.43;;
7029;SDS011;3556;53.500;10.176;2022-12-05T03:01:23;41.30;;;20.50;;
7029;SDS011;3556;53.500;10.176;2022-12-05T03:03:52;35.33;;;18.80;;
7029;SDS011;3556;53.500;10.176;2022-12-05T03:06:20;39.63;;;19.83;;
7029;SDS011;3556;53.500;10.176;2022-12-05T03:08:57;42.30;;;20.10;;
7029;SDS011;3556;53.500;10.176;2022-12-05T03:11:35;42.73;;;20.40;;
7029;SDS011;3556;53.500;10.176;2022-12-05T03:14:07;37.40;;;20.00;;
7029;SDS011;3556;53.500;10.176;2022-12-05T03:16:39;37.53;;;19.60;;
7029;SDS011;3556;53.500;10.176;2022-12-05T03:19:11;40.43;;;19.87;;
7029;SDS011;3556;53.500;10.176;2022-12-05T03:21:54;38.47;;;19.80;;
7029;SDS011;3556;53.500;10.176;2022-12-05T03:24:31;37.33;;;18.90;;
7029;SDS011;3556;53.500;10.176;2022-12-05T03:35:15;45.53;;;21.57;;
7029;SDS011;3556;53.500;10.176;2022-12-05T03:37:51;46.27;;;20.70;;
7029;SDS011;3556;53.500;10.176;2022-12-05T03:43:44;43.17;;;21.30;;
7029;SDS011;3556;53.500;10.176;2022-12-05T03:51:40;46.53;;;21.10;;
7029;SDS011;3556;53.500;10.176;2022-12-05T03:56:43;46.97;;;21.23;;
7029;SDS011;3556;53.500;10.176;2022-12-05T04:02:14;52.00;;;21.97;;
7029;SDS011;3556;53.500;10.176;2022-12-05T04:05:08;52.13;;;22.20;;
7029;SDS011;3556;53.500;10.176;2022-12-05T04:08:09;50.87;;;22.13;;
7029;SDS011;3556;53.500;10.176;2022-12-05T04:10:36;46.10;;;21.80;;
7029;SDS011;3556;53.500;10.176;2022-12-05T04:16:17;49.73;;;23.50;;
7029;SDS011;3556;53.500;10.176;2022-12-05T04:21:54;56.83;;;22.93;;
7029;SDS011;3556;53.500;10.176;2022-12-05T04:27:17;45.37;;;22.43;;
7029;SDS011;3556;53.500;10.176;2022-12-05T04:35:14;52.30;;;22.50;;
7029;SDS011;3556;53.500;10.176;2022-12-05T04:37:47;52.37;;;21.90;;
7029;SDS011;3556;53.500;10.176;2022-12-05T04:40:21;50.70;;;21.70;;
7029;SDS011;3556;53.500;10.176;2022-12-05T04:42:59;55.77;;;22.43;;
7029;SDS011;3556;53.500;10.176;2022-12-05T04:45:28;48.73;;;21.20;;
7029;SDS011;3556;53.500;10.176;2022-12-05T04:47:56;48.77;;;21.70;;
7029;SDS011;3556;53.500;10.176;2022-12-05T04:50:27;46.83;;;21.63;;
7029;SDS011;3556;53.500;10.176;2022-12-05T04:52:55;49.67;;;21.17;;
7029;SDS011;3556;53.500;10.176;2022-12-05T04:55:23;48.77;;;21.80;;
7029;SDS011;3556;53.500;10.176;2022-12-05T04:58:37;48.03;;;21.90;;
7029;SDS011;3556;53.500;10.176;2022-12-05T05:00:53;49.77;;;21.60;;
7029;SDS011;3556;53.500;10.176;2022-12-05T05:03:42;47.67;;;21.47;;
7029;SDS011;3556;53.500;10.176;2022-12-05T05:06:11;46.90;;;21.50;;
7029;SDS011;3556;53.500;10.176;2022-12-05T05:08:44;47.20;;;20.30;;
7029;SDS011;3556;53.500;10.176;2022-12-05T05:11:19;43.27;;;21.13;;
7029;SDS011;3556;53.500;10.176;2022-12-05T05:13:53;50.70;;;21.57;;
7029;SDS011;3556;53.500;10.176;2022-12-05T05:16:20;50.30;;;23.00;;
7029;SDS011;3556;53.500;10.176;2022-12-05T05:18:48;50.20;;;20.47;;
7029;SDS011;3556;53.500;10.176;2022-12-05T05:21:15;49.20;;;21.23;;
7029;SDS011;3556;53.500;10.176;2022-12-05T05:23:45;47.43;;;21.63;;
7029;SDS011;3556;53.500;10.176;2022-12-05T05:26:11;52.57;;;22.07;;
7029;SDS011;3556;53.500;10.176;2022-12-05T05:28:37;54.57;;;21.30;;
7029;SDS011;3556;53.500;10.176;2022-12-05T05:31:03;52.03;;;20.10;;
7029;SDS011;3556;53.500;10.176;2022-12-05T05:33:30;44.37;;;20.20;;
7029;SDS011;3556;53.500;10.176;2022-12-05T05:35:56;49.40;;;21.20;;
7029;SDS011;3556;53.500;10.176;2022-12-05T05:38:30;56.73;;;20.20;;
7029;SDS011;3556;53.500;10.176;2022-12-05T05:41:00;59.03;;;22.80;;
7029;SDS011;3556;53.500;10.176;2022-12-05T05:43:26;58.07;;;22.90;;
7029;SDS011;3556;53.500;10.176;2022-12-05T05:45:51;55.07;;;21.67;;
7029;SDS011;3556;53.500;10.176;2022-12-05T05:48:17;62.17;;;24.23;;
7029;SDS011;3556;53.500;10.176;2022-12-05T05:50:43;70.00;;;25.73;;
7029;SDS011;3556;53.500;10.176;2022-12-05T05:53:08;81.00;;;26.93;;
7029;SDS011;3556;53.500;10.176;2022-12-05T05:55:34;86.93;;;26.40;;
7029;SDS011;3556;53.500;10.176;2022-12-05T05:57:59;86.27;;;27.50;;
7029;SDS011;3556;53.500;10.176;2022-12-05T06:00:25;85.20;;;27.57;;
7029;SDS011;3556;53.500;10.176;2022-12-05T06:02:50;92.30;;;28.70;;
7029;SDS011;3556;53.500;10.176;2022-12-05T06:05:16;89.27;;;27.87;;
7029;SDS011;3556;53.500;10.176;2022-12-05T06:07:42;99.07;;;29.10;;
7029;SDS011;3556;53.500;10.176;2022-12-05T06:10:07;95.53;;;29.00;;
7029;SDS011;3556;53.500;10.176;2022-12-05T06:12:33;98.70;;;31.00;;
7029;SDS011;3556;53.500;10.176;2022-12-05T06:14:59;103.53;;;28.80;;
7029;SDS011;3556;53.500;10.176;2022-12-05T06:17:25;99.37;;;28.67;;
7029;SDS011;3556;53.500;10.176;2022-12-05T06:19:50;103.40;;;30.70;;
7029;SDS011;3556;53.500;10.176;2022-12-05T06:22:16;91.63;;;28.77;;
7029;SDS011;3556;53.500;10.176;2022-12-05T06:24:42;93.30;;;27.57;;
7029;SDS011;3556;53.500;10.176;2022-12-05T06:27:07;91.90;;;29.13;;
7029;SDS011;3556;53.500;10.176;2022-12-05T06:29:33;98.00;;;30.20;;
7029;SDS011;3556;53.500;10.176;2022-12-05T06:31:59;102.77;;;30.23;;
7029;SDS011;3556;53.500;10.176;2022-12-05T06:34:25;94.27;;;29.70;;
7029;SDS011;3556;53.500;10.176;2022-12-05T06:36:51;94.20;;;28.30;;
7029;SDS011;3556;53.500;10.176;2022-12-05T06:39:17;97.73;;;29.67;;
7029;SDS011;3556;53.500;10.176;2022-12-05T06:41:42;104.97;;;31.87;;
7029;SDS011;3556;53.500;10.176;2022-12-05T06:44:08;127.57;;;34.67;;
7029;SDS011;3556;53.500;10.176;2022-12-05T06:46:34;112.93;;;31.03;;
7029;SDS011;3556;53.500;10.176;2022-12-05T06:48:59;112.27;;;31.00;;
7029;SDS011;3556;53.500;10.176;2022-12-05T06:51:25;113.17;;;31.37;;
7029;SDS011;3556;53.500;10.176;2022-12-05T06:53:51;124.00;;;31.63;;
7029;SDS011;3556;53.500;10.176;2022-12-05T06:56:17;124.97;;;30.90;;
7029;SDS011;3556;53.500;10.176;2022-12-05T06:58:44;117.10;;;31.07;;
7029;SDS011;3556;53.500;10.176;2022-12-05T07:01:15;133.50;;;34.60;;
7029;SDS011;3556;53.500;10.176;2022-12-05T07:04:07;118.10;;;31.93;;
7029;SDS011;3556;53.500;10.176;2022-12-05T07:06:39;132.13;;;31.53;;
7029;SDS011;3556;53.500;10.176;2022-12-05T07:09:06;143.77;;;33.20;;
7029;SDS011;3556;53.500;10.176;2022-12-05T07:11:31;124.93;;;32.63;;
7029;SDS011;3556;53.500;10.176;2022-12-05T07:13:57;140.27;;;34.00;;
7029;SDS011;3556;53.500;10.176;2022-12-05T07:16:23;133.33;;;33.30;;
7029;SDS011;3556;53.500;10.176;2022-12-05T07:18:48;131.57;;;34.17;;
7029;SDS011;3556;53.500;10.176;2022-12-05T07:21:14;136.27;;;33.20;;
7029;SDS011;3556;53.500;10.176;2022-12-05T07:23:41;131.90;;;31.30;;
7029;SDS011;3556;53.500;10.176;2022-12-05T07:26:09;110.70;;;29.80;;
7029;SDS011;3556;53.500;10.176;2022-12-05T07:28:37;100.10;;;28.50;;
7029;SDS011;3556;53.500;10.176;2022-12-05T07:31:03;82.13;;;28.63;;
7029;SDS011;3556;53.500;10.176;2022-12-05T07:33:31;95.77;;;28.50;;
7029;SDS011;3556;53.500;10.176;2022-12-05T07:36:00;96.40;;;29.37;;
7029;SDS011;3556;53.500;10.176;2022-12-05T07:38:28;94.63;;;29.37;;
7029;SDS011;3556;53.500;10.176;2022-12-05T07:40:54;91.23;;;28.70;;
7029;SDS011;3556;53.500;10.176;2022-12-05T07:43:20;100.57;;;28.23;;
7029;SDS011;3556;53.500;10.176;2022-12-05T07:45:46;82.53;;;25.03;;
7029;SDS011;3556;53.500;10.176;2022-12-05T07:48:12;85.27;;;25.80;;
7029;SDS011;3556;53.500;10.176;2022-12-05T07:50:37;72.53;;;24.57;;
7029;SDS011;3556;53.500;10.176;2022-12-05T07:53:03;82.40;;;24.93;;
7029;SDS011;3556;53.500;10.176;2022-12-05T07:55:28;72.40;;;25.63;;
7029;SDS011;3556;53.500;10.176;2022-12-05T07:57:54;83.07;;;26.50;;
7029;SDS011;3556;53.500;10.176;2022-12-05T08:00:20;77.93;;;25.37;;
7029;SDS011;3556;53.500;10.176;2022-12-05T08:02:46;71.73;;;25.20;;
7029;SDS011;3556;53.500;10.176;2022-12-05T08:05:11;95.83;;;27.67;;
7029;SDS011;3556;53.500;10.176;2022-12-05T08:07:37;91.03;;;26.43;;
7029;SDS011;3556;53.500;10.176;2022-12-05T08:10:03;91.30;;;27.17;;
7029;SDS011;3556;53.500;10.176;2022-12-05T08:12:29;100.60;;;28.77;;
7029;SDS011;3556;53.500;10.176;2022-12-05T08:14:55;100.53;;;29.60;;
7029;SDS011;3556;53.500;10.176;2022-12-05T08:17:21;99.40;;;29.80;;
7029;SDS011;3556;53.500;10.176;2022-12-05T08:19:46;98.03;;;26.50;;
7029;SDS011;3556;53.500;10.176;2022-12-05T08:22:12;81.83;;;26.97;;
7029;SDS011;3556;53.500;10.176;2022-12-05T08:24:37;95.00;;;29.17;;
7029;SDS011;3556;53.500;10.176;2022-12-05T08:27:03;90.80;;;28.57;;
7029;SDS011;3556;53.500;10.176;2022-12-05T08:29:29;84.57;;;27.50;;
7029;SDS011;3556;53.500;10.176;2022-12-05T08:31:55;99.97;;;28.27;;
7029;SDS011;3556;53.500;10.176;2022-12-05T08:34:21;92.87;;;27.47;;
7029;SDS011;3556;53.500;10.176;2022-12-05T08:36:47;82.27;;;26.13;;
7029;SDS011;3556;53.500;10.176;2022-12-05T08:39:13;88.07;;;26.70;;
7029;SDS011;3556;53.500;10.176;2022-12-05T08:41:42;92.97;;;28.30;;
7029;SDS011;3556;53.500;10.176;2022-12-05T08:44:09;86.17;;;25.70;;
7029;SDS011;3556;53.500;10.176;2022-12-05T08:46:40;80.60;;;25.27;;
7029;SDS011;3556;53.500;10.176;2022-12-05T08:49:06;73.77;;;26.53;;
7029;SDS011;3556;53.500;10.176;2022-12-05T08:51:32;80.10;;;26.17;;
7029;SDS011;3556;53.500;10.176;2022-12-05T08:54:00;65.27;;;23.70;;
7029;SDS011;3556;53.500;10.176;2022-12-05T08:56:27;78.77;;;25.63;;
7029;SDS011;3556;53.500;10.176;2022-12-05T08:58:52;73.80;;;24.47;;
7029;SDS011;3556;53.500;10.176;2022-12-05T09:01:19;74.83;;;26.10;;
7029;SDS011;3556;53.500;10.176;2022-12-05T09:03:46;66.47;;;23.37;;
7029;SDS011;3556;53.500;10.176;2022-12-05T09:06:17;63.50;;;23.93;;
7029;SDS011;3556;53.500;10.176;2022-12-05T09:08:44;68.10;;;23.27;;
7029;SDS011;3556;53.500;10.176;2022-12-05T09:13:37;72.00;;;24.00;;
7029;SDS011;3556;53.500;10.176;2022-12-05T09:16:07;69.87;;;25.20;;
7029;SDS011;3556;53.500;10.176;2022-12-05T09:18:35;66.13;;;23.97;;
7029;SDS011;3556;53.500;10.176;2022-12-05T09:21:05;67.67;;;23.43;;
7029;SDS011;3556;53.500;10.176;2022-12-05T09:23:35;64.30;;;23.90;;
7029;SDS011;3556;53.500;10.176;2022-12-05T09:26:01;62.57;;;22.70;;
7029;SDS011;3556;53.500;10.176;2022-12-05T09:28:29;64.47;;;24.30;;
7029;SDS011;3556;53.500;10.176;2022-12-05T09:30:59;62.80;;;22.30;;
7029;SDS011;3556;53.500;10.176;2022-12-05T09:33:29;65.53;;;23.00;;
7029;SDS011;3556;53.500;10.176;2022-12-05T09:35:56;58.27;;;21.90;;
7029;SDS011;3556;53.500;10.176;2022-12-05T09:38:22;57.30;;;23.37;;
7029;SDS011;3556;53.500;10.176;2022-12-05T09:43:51;66.03;;;23.77;;
7029;SDS011;3556;53.500;10.176;2022-12-05T09:49:31;56.97;;;22.77;;
7029;SDS011;3556;53.500;10.176;2022-12-05T09:52:02;53.40;;;22.10;;
7029;SDS011;3556;53.500;10.176;2022-12-05T09:54:28;62.60;;;22.80;;
7029;SDS011;3556;53.500;10.176;2022-12-05T09:56:55;54.93;;;22.80;;
7029;SDS011;3556;53.500;10.176;2022-12-05T09:59:22;52.73;;;21.23;;
7029;SDS011;3556;53.500;10.176;2022-12-05T10:02:09;54.83;;;22.10;;
7029;SDS011;3556;53.500;10.176;2022-12-05T10:05:03;49.07;;;21.27;;
7029;SDS011;3556;53.500;10.176;2022-12-05T10:13:47;55.90;;;20.50;;
7029;SDS011;3556;53.500;10.176;2022-12-05T10:16:31;51.63;;;20.70;;
7029;SDS011;3556;53.500;10.176;2022-12-05T10:19:22;52.60;;;21.20;;
7029;SDS011;3556;53.500;10.176;2022-12-05T10:24:46;52.10;;;20.87;;
7029;SDS011;3556;53.500;10.176;2022-12-05T10:27:35;43.03;;;18.90;;
7029;SDS011;3556;53.500;10.176;2022-12-05T10:30:08;48.17;;;18.70;;
7029;SDS011;3556;53.500;10.176;2022-12-05T10:35:21;42.93;;;20.07;;
7029;SDS011;3556;53.500;10.176;2022-12-05T10:37:50;44.13;;;18.67;;
7029;SDS011;3556;53.500;10.176;2022-12-05T10:40:29;42.27;;;18.73;;
7029;SDS011;3556;53.500;10.176;2022-12-05T10:43:01;49.13;;;19.20;;
7029;SDS011;3556;53.500;10.176;2022-12-05T10:45:29;45.63;;;19.30;;
7029;SDS011;3556;53.500;10.176;2022-12-05T10:47:56;46.03;;;19.17;;
7029;SDS011;3556;53.500;10.176;2022-12-05T10:50:23;51.07;;;19.63;;
7029;SDS011;3556;53.500;10.176;2022-12-05T10:52:52;46.80;;;19.87;;
7029;SDS011;3556;53.500;10.176;2022-12-05T10:55:21;52.63;;;18.67;;
7029;SDS011;3556;53.500;10.176;2022-12-05T10:57:51;43.60;;;19.30;;
7029;SDS011;3556;53.500;10.176;2022-12-05T11:00:32;41.97;;;18.63;;
7029;SDS011;3556;53.500;10.176;2022-12-05T11:02:57;40.83;;;17.83;;
7029;SDS011;3556;53.500;10.176;2022-12-05T11:05:28;37.40;;;18.00;;
7029;SDS011;3556;53.500;10.176;2022-12-05T11:07:55;40.87;;;17.90;;
7029;SDS011;3556;53.500;10.176;2022-12-05T11:13:01;43.43;;;18.30;;
7029;SDS011;3556;53.500;10.176;2022-12-05T11:15:48;38.07;;;17.20;;
7029;SDS011;3556;53.500;10.176;2022-12-05T11:18:18;38.10;;;17.60;;
7029;SDS011;3556;53.500;10.176;2022-12-05T11:20:55;39.07;;;17.97;;
7029;SDS011;3556;53.500;10.176;2022-12-05T11:23:33;37.87;;;17.40;;
7029;SDS011;3556;53.500;10.176;2022-12-05T11:25:58;41.37;;;17.23;;
7029;SDS011;3556;53.500;10.176;2022-12-05T11:28:31;42.90;;;18.13;;
7029;SDS011;3556;53.500;10.176;2022-12-05T11:30:59;40.53;;;16.80;;
7029;SDS011;3556;53.500;10.176;2022-12-05T11:33:40;38.23;;;17.00;;
7029;SDS011;3556;53.500;10.176;2022-12-05T11:36:19;39.13;;;17.27;;
7029;SDS011;3556;53.500;10.176;2022-12-05T11:38:47;40.83;;;18.03;;
7029;SDS011;3556;53.500;10.176;2022-12-05T11:47:11;36.23;;;16.90;;
7029;SDS011;3556;53.500;10.176;2022-12-05T11:50:07;46.93;;;18.43;;
7029;SDS011;3556;53.500;10.176;2022-12-05T11:53:41;33.57;;;16.07;;
7029;SDS011;3556;53.500;10.176;2022-12-05T12:09:29;32.70;;;15.87;;
7029;SDS011;3556;53.500;10.176;2022-12-05T12:15:01;30.40;;;15.70;;
7029;SDS011;3556;53.500;10.176;2022-12-05T12:26:24;36.93;;;16.13;;
7029;SDS011;3556;53.500;10.176;2022-12-05T12:29:11;33.97;;;15.17;;
7029;SDS011;3556;53.500;10.176;2022-12-05T12:37:40;36.47;;;15.70;;
7029;SDS011;3556;53.500;10.176;2022-12-05T12:40:34;35.30;;;15.77;;
7029;SDS011;3556;53.500;10.176;2022-12-05T12:51:39;31.30;;;15.03;;
7029;SDS011;3556;53.500;10.176;2022-12-05T13:05:46;32.33;;;13.70;;
7029;SDS011;3556;53.500;10.176;2022-12-05T13:11:07;32.53;;;14.43;;
7029;SDS011;3556;53.500;10.176;2022-12-05T13:13:42;22.57;;;12.40;;
7029;SDS011;3556;53.500;10.176;2022-12-05T13:19:23;22.83;;;12.80;;
7029;SDS011;3556;53.500;10.176;2022-12-05T13:21:54;26.23;;;13.10;;
7029;SDS011;3556;53.500;10.176;2022-12-05T13:24:23;25.57;;;13.30;;
7029;SDS011;3556;53.500;10.176;2022-12-05T13:26:51;29.50;;;14.40;;
7029;SDS011;3556;53.500;10.176;2022-12-05T13:29:40;30.87;;;13.90;;
7029;SDS011;3556;53.500;10.176;2022-12-05T13:32:06;27.83;;;12.90;;
7029;SDS011;3556;53.500;10.176;2022-12-05T13:34:50;24.27;;;13.80;;
7029;SDS011;3556;53.500;10.176;2022-12-05T13:37:18;26.53;;;13.43;;
7029;SDS011;3556;53.500;10.176;2022-12-05T13:40:30;29.37;;;14.40;;
7029;SDS011;3556;53.500;10.176;2022-12-05T13:43:17;23.67;;;13.50;;
7029;SDS011;3556;53.500;10.176;2022-12-05T13:46:19;23.37;;;13.47;;
7029;SDS011;3556;53.500;10.176;2022-12-05T13:48:45;22.27;;;12.87;;
7029;SDS011;3556;53.500;10.176;2022-12-05T13:51:28;23.63;;;12.87;;
7029;SDS011;3556;53.500;10.176;2022-12-05T13:54:37;34.80;;;15.80;;
7029;SDS011;3556;53.500;10.176;2022-12-05T13:56:48;26.00;;;13.07;;
7029;SDS011;3556;53.500;10.176;2022-12-05T14:07:46;25.23;;;13.10;;
7029;SDS011;3556;53.500;10.176;2022-12-05T14:10:14;30.30;;;14.83;;
7029;SDS011;3556;53.500;10.176;2022-12-05T14:13:01;29.03;;;14.00;;
7029;SDS011;3556;53.500;10.176;2022-12-05T14:15:39;28.50;;;14.30;;
7029;SDS011;3556;53.500;10.176;2022-12-05T14:29:35;24.40;;;12.90;;
7029;SDS011;3556;53.500;10.176;2022-12-05T14:39:56;18.57;;;11.50;;
7029;SDS011;3556;53.500;10.176;2022-12-05T14:45:20;23.77;;;12.60;;
7029;SDS011;3556;53.500;10.176;2022-12-05T14:47:56;22.57;;;12.13;;
7029;SDS011;3556;53.500;10.176;2022-12-05T14:56:01;18.33;;;11.43;;
7029;SDS011;3556;53.500;10.176;2022-12-05T15:03:38;21.27;;;12.43;;
7029;SDS011;3556;53.500;10.176;2022-12-05T15:06:10;29.10;;;11.97;;
7029;SDS011;3556;53.500;10.176;2022-12-05T15:08:43;19.97;;;12.03;;
7029;SDS011;3556;53.500;10.176;2022-12-05T15:11:17;18.80;;;11.80;;
7029;SDS011;3556;53.500;10.176;2022-12-05T15:16:34;18.77;;;10.97;;
7029;SDS011;3556;53.500;10.176;2022-12-05T15:19:06;19.00;;;10.87;;
7029;SDS011;3556;53.500;10.176;2022-12-05T15:21:41;18.73;;;11.20;;
7029;SDS011;3556;53.500;10.176;2022-12-05T15:24:14;17.70;;;11.20;;
7029;SDS011;3556;53.500;10.176;2022-12-05T15:26:43;36.83;;;20.60;;
7029;SDS011;3556;53.500;10.176;2022-12-05T15:29:10;22.30;;;13.93;;
7029;SDS011;3556;53.500;10.176;2022-12-05T15:31:47;19.73;;;14.30;;
7029;SDS011;3556;53.500;10.176;2022-12-05T15:34:15;17.53;;;11.50;;
7029;SDS011;3556;53.500;10.176;2022-12-05T15:37:02;20.20;;;12.47;;
7029;SDS011;3556;53.500;10.176;2022-12-05T15:42:43;29.90;;;17.53;;
7029;SDS011;3556;53.500;10.176;2022-12-05T15:47:36;27.50;;;13.73;;
7029;SDS011;3556;53.500;10.176;2022-12-05T15:50:01;38.80;;;22.20;;
7029;SDS011;3556;53.500;10.176;2022-12-05T15:52:32;25.27;;;15.57;;
7029;SDS011;3556;53.500;10.176;2022-12-05T15:55:07;36.97;;;21.03;;
7029;SDS011;3556;53.500;10.176;2022-12-05T15:57:49;23.77;;;14.40;;
7029;SDS011;3556;53.500;10.176;2022-12-05T16:00:44;17.80;;;11.27;;
7029;SDS011;3556;53.500;10.176;2022-12-05T16:03:14;30.47;;;18.33;;
7029;SDS011;3556;53.500;10.176;2022-12-05T16:08:10;37.07;;;19.80;;
7029;SDS011;3556;53.500;10.176;2022-12-05T16:10:36;39.63;;;23.00;;
7029;SDS011;3556;53.500;10.176;2022-12-05T16:13:04;31.27;;;18.00;;
7029;SDS011;3556;53.500;10.176;2022-12-05T16:15:35;22.80;;;13.70;;
7029;SDS011;3556;53.500;10.176;2022-12-05T16:18:01;25.90;;;14.63;;
7029;SDS011;3556;53.500;10.176;2022-12-05T16:23:03;30.53;;;16.90;;
7029;SDS011;3556;53.500;10.176;2022-12-05T16:25:50;16.97;;;11.50;;
7029;SDS011;3556;53.500;10.176;2022-12-05T16:28:17;21.47;;;12.27;;
7029;SDS011;3556;53.500;10.176;2022-12-05T16:30:54;16.80;;;11.57;;
7029;SDS011;3556;53.500;10.176;2022-12-05T16:33:24;20.57;;;13.57;;
7029;SDS011;3556;53.500;10.176;2022-12-05T16:35:52;29.27;;;14.00;;
7029;SDS011;3556;53.500;10.176;2022-12-05T16:38:19;26.07;;;15.63;;
7029;SDS011;3556;53.500;10.176;2022-12-05T16:40:54;22.87;;;14.57;;
7029;SDS011;3556;53.500;10.176;2022-12-05T16:45:54;22.53;;;14.13;;
7029;SDS011;3556;53.500;10.176;2022-12-05T16:48:32;28.33;;;17.50;;
7029;SDS011;3556;53.500;10.176;2022-12-05T16:51:31;22.90;;;14.87;;
7029;SDS011;3556;53.500;10.176;2022-12-05T16:53:52;24.70;;;14.67;;
7029;SDS011;3556;53.500;10.176;2022-12-05T16:56:20;24.57;;;14.13;;
7029;SDS011;3556;53.500;10.176;2022-12-05T16:58:52;28.10;;;17.20;;
7029;SDS011;3556;53.500;10.176;2022-12-05T17:01:19;35.83;;;22.03;;
7029;SDS011;3556;53.500;10.176;2022-12-05T17:03:46;30.53;;;18.70;;
7029;SDS011;3556;53.500;10.176;2022-12-05T17:06:12;26.80;;;18.10;;
7029;SDS011;3556;53.500;10.176;2022-12-05T17:08:38;20.53;;;12.80;;
7029;SDS011;3556;53.500;10.176;2022-12-05T17:11:07;24.13;;;13.80;;
7029;SDS011;3556;53.500;10.176;2022-12-05T17:13:38;19.40;;;13.10;;
7029;SDS011;3556;53.500;10.176;2022-12-05T17:16:04;23.90;;;12.90;;
7029;SDS011;3556;53.500;10.176;2022-12-05T17:18:30;24.53;;;14.40;;
7029;SDS011;3556;53.500;10.176;2022-12-05T17:20:56;23.53;;;14.70;;
7029;SDS011;3556;53.500;10.176;2022-12-05T17:23:25;15.40;;;11.10;;
7029;SDS011;3556;53.500;10.176;2022-12-05T17:25:54;23.10;;;12.83;;
7029;SDS011;3556;53.500;10.176;2022-12-05T17:28:21;16.97;;;11.90;;
7029;SDS011;3556;53.500;10.176;2022-12-05T17:30:47;20.53;;;12.43;;
7029;SDS011;3556;53.500;10.176;2022-12-05T17:33:13;20.47;;;12.47;;
7029;SDS011;3556;53.500;10.176;2022-12-05T17:35:41;22.17;;;12.87;;
7029;SDS011;3556;53.500;10.176;2022-12-05T17:38:06;16.50;;;12.20;;
7029;SDS011;3556;53.500;10.176;2022-12-05T17:40:32;21.97;;;14.50;;
7029;SDS011;3556;53.500;10.176;2022-12-05T17:42:58;23.50;;;13.57;;
7029;SDS011;3556;53.500;10.176;2022-12-05T17:45:24;25.97;;;14.67;;
7029;SDS011;3556;53.500;10.176;2022-12-05T17:47:50;29.43;;;16.73;;
7029;SDS011;3556;53.500;10.176;2022-12-05T17:50:17;33.77;;;18.00;;
7029;SDS011;3556;53.500;10.176;2022-12-05T17:52:45;19.80;;;13.17;;
7029;SDS011;3556;53.500;10.176;2022-12-05T17:55:22;24.93;;;12.83;;
7029;SDS011;3556;53.500;10.176;2022-12-05T17:57:49;19.97;;;13.20;;
7029;SDS011;3556;53.500;10.176;2022-12-05T18:00:16;22.27;;;13.60;;
7029;SDS011;3556;53.500;10.176;2022-12-05T18:02:43;28.60;;;14.33;;
7029;SDS011;3556;53.500;10.176;2022-12-05T18:05:10;35.33;;;19.27;;
7029;SDS011;3556;53.500;10.176;2022-12-05T18:07:37;39.50;;;21.30;;
7029;SDS011;3556;53.500;10.176;2022-12-05T18:10:04;40.67;;;21.77;;
7029;SDS011;3556;53.500;10.176;2022-12-05T18:12:32;37.23;;;19.60;;
7029;SDS011;3556;53.500;10.176;2022-12-05T18:14:57;28.00;;;15.67;;
7029;SDS011;3556;53.500;10.176;2022-12-05T18:17:23;27.80;;;14.70;;
7029;SDS011;3556;53.500;10.176;2022-12-05T18:19:51;34.90;;;17.60;;
7029;SDS011;3556;53.500;10.176;2022-12-05T18:22:17;30.97;;;16.90;;